Time;durP1;ratioP1;P1;durP2;ratioP2;P2;SDS_P1;SDS_P2;PMS_P1;PMS_P2;Temp;Humidity;BMP_temperature;BMP_pressure;BME280_temperature;BME280_humidity;BME280_pressure;Samples;Min_cycle;Max_cycle;Signal;HPM_P1;HPM_P2
2023/10/12 00:01:57;;;;;;;9.85;3.70;;;18.50;99.90;;;;;;5048131;28;20084;-76
2023/10/12 00:07:15;;;;;;;6.47;3.55;;;18.40;99.90;;;;;;5043520;28;20048;-76
2023/10/12 00:09:49;;;;;;;7.82;3.65;;;18.50;99.90;;;;;;5044932;28;20049;-77
2023/10/12 00:12:21;;;;;;;7.10;3.20;;;18.40;99.90;;;;;;5049255;28;20402;-76
2023/10/12 00:14:48;;;;;;;10.18;3.38;;;18.40;99.90;;;;;;5051083;28;20073;-77
2023/10/12 00:17:17;;;;;;;6.90;3.58;;;18.30;99.90;;;;;;5042888;28;20061;-76
2023/10/12 00:19:44;;;;;;;7.68;3.25;;;18.30;99.90;;;;;;5045556;28;20802;-76
2023/10/12 00:22:15;;;;;;;6.93;3.13;;;18.30;99.90;;;;;;5042837;28;20053;-76
2023/10/12 00:24:43;;;;;;;11.30;3.83;;;18.30;99.90;;;;;;5044090;28;20483;-76
2023/10/12 00:27:12;;;;;;;10.00;3.72;;;18.30;99.90;;;;;;5048628;28;20045;-77
2023/10/12 00:29:39;;;;;;;8.57;3.58;;;18.20;99.90;;;;;;5030309;28;20076;-76
2023/10/12 00:32:09;;;;;;;7.28;3.30;;;18.20;99.90;;;;;;5043822;28;20463;-76
2023/10/12 00:34:37;;;;;;;;;;;18.20;99.90;;;;;;5043697;28;20470;-76
2023/10/12 00:37:06;;;;;;;9.23;3.33;;;18.10;99.90;;;;;;5042952;28;19924;-76
2023/10/12 00:39:58;;;;;;;8.03;3.53;;;18.10;99.90;;;;;;5036014;28;20554;-76
2023/10/12 00:42:29;;;;;;;12.30;3.35;;;18.10;99.90;;;;;;5045559;28;20291;-76
2023/10/12 00:44:56;;;;;;;10.38;3.40;;;18.10;99.90;;;;;;5049456;28;20056;-77
2023/10/12 00:47:43;;;;;;;8.02;2.97;;;18.00;99.90;;;;;;5039671;28;20132;-76
2023/10/12 00:50:14;;;;;;;14.70;4.43;;;18.00;99.90;;;;;;5025934;28;20099;-76
2023/10/12 00:53:31;;;;;;;9.13;3.40;;;18.00;99.90;;;;;;5046909;28;20124;-76
2023/10/12 00:55:36;;;;;;;11.25;3.80;;;17.90;99.90;;;;;;5037909;28;20049;-76
2023/10/12 00:58:05;;;;;;;11.40;3.90;;;17.90;99.90;;;;;;5044258;28;20076;-77
2023/10/12 01:00:35;;;;;;;10.15;3.88;;;17.90;99.90;;;;;;5046295;28;20122;-76
2023/10/12 01:06:06;;;;;;;11.90;4.55;;;17.80;99.90;;;;;;5045086;28;20148;-76
2023/10/12 01:08:33;;;;;;;12.65;4.72;;;17.80;99.90;;;;;;5047338;28;20103;-76
2023/10/12 01:11:07;;;;;;;8.98;3.72;;;17.80;99.90;;;;;;5048836;28;20053;-76
2023/10/12 01:13:34;;;;;;;9.43;4.60;;;17.70;99.90;;;;;;5025200;28;20206;-77
2023/10/12 01:16:16;;;;;;;8.35;3.35;;;17.70;99.90;;;;;;5045334;28;20037;-76
2023/10/12 01:18:45;;;;;;;6.70;3.65;;;17.70;99.90;;;;;;5037177;28;20060;-76
2023/10/12 01:21:12;;;;;;;9.13;4.28;;;17.70;99.90;;;;;;5046940;28;20056;-76
2023/10/12 01:23:41;;;;;;;9.35;4.50;;;17.70;99.90;;;;;;5031339;28;20088;-76
2023/10/12 01:26:11;;;;;;;6.63;3.47;;;17.60;99.90;;;;;;5044264;28;20048;-76
2023/10/12 01:28:38;;;;;;;13.73;3.70;;;17.60;99.90;;;;;;5044605;28;20049;-76
2023/10/12 01:31:05;;;;;;;11.18;3.45;;;17.60;99.90;;;;;;5044562;28;20483;-76
2023/10/12 01:33:31;;;;;;;10.25;3.22;;;17.60;99.90;;;;;;5040900;28;20048;-75
2023/10/12 01:35:59;;;;;;;6.22;3.97;;;17.60;99.90;;;;;;5049625;28;20061;-76
2023/10/12 01:38:36;;;;;;;7.30;3.53;;;17.60;99.90;;;;;;5048595;28;20091;-76
2023/10/12 01:41:12;;;;;;;6.75;3.42;;;17.60;99.90;;;;;;5046099;28;20106;-76
2023/10/12 01:43:40;;;;;;;9.20;3.50;;;17.70;99.90;;;;;;5026875;28;20057;-76
2023/10/12 01:46:08;;;;;;;6.38;3.20;;;17.70;99.90;;;;;;5040606;28;20094;-76
2023/10/12 01:48:35;;;;;;;8.48;3.15;;;17.70;99.90;;;;;;5040388;28;20052;-76
2023/10/12 01:51:24;;;;;;;10.25;3.40;;;17.70;99.90;;;;;;5051402;28;20474;-76
2023/10/12 01:53:54;;;;;;;10.02;3.28;;;17.70;99.90;;;;;;5048336;28;20046;-76
2023/10/12 01:56:26;;;;;;;7.40;3.35;;;17.70;99.90;;;;;;5041445;28;20416;-76
2023/10/12 01:58:54;;;;;;;8.38;3.33;;;17.70;99.90;;;;;;5044671;28;20055;-76
2023/10/12 02:01:22;;;;;;;6.93;3.28;;;17.70;99.90;;;;;;5039484;28;20664;-76
2023/10/12 02:03:54;;;;;;;6.72;3.45;;;17.70;99.90;;;;;;5024729;28;20046;-76
2023/10/12 02:06:28;;;;;;;9.05;3.60;;;17.60;99.90;;;;;;5047345;28;20076;-76
2023/10/12 02:09:02;;;;;;;9.52;3.45;;;17.60;99.90;;;;;;5048032;28;20049;-76
2023/10/12 02:11:45;;;;;;;7.45;3.40;;;17.60;99.90;;;;;;5039820;28;20110;-76
2023/10/12 02:14:12;;;;;;;10.00;3.60;;;17.60;99.90;;;;;;5043039;28;20045;-76
2023/10/12 02:16:52;;;;;;;8.98;3.83;;;17.50;99.90;;;;;;5037768;28;20041;-76
2023/10/12 02:19:31;;;;;;;5.25;3.20;;;17.50;99.90;;;;;;5027858;28;20048;-76
2023/10/12 02:22:00;;;;;;;10.05;3.35;;;17.40;99.90;;;;;;5046901;28;20048;-76
2023/10/12 02:24:27;;;;;;;8.20;3.38;;;17.40;99.90;;;;;;5045382;28;20095;-76
2023/10/12 02:26:55;;;;;;;13.77;3.85;;;17.40;99.90;;;;;;5041678;28;20052;-75
2023/10/12 02:29:21;;;;;;;9.90;4.07;;;17.40;99.90;;;;;;5042645;28;20045;-76
2023/10/12 02:34:18;;;;;;;8.20;3.40;;;17.30;99.90;;;;;;5050949;28;20044;-77
2023/10/12 02:37:00;;;;;;;7.00;3.40;;;17.30;99.90;;;;;;5044265;28;20119;-76
2023/10/12 02:39:29;;;;;;;8.60;3.53;;;17.30;99.90;;;;;;5035833;28;20157;-76
2023/10/12 02:47:22;;;;;;;8.20;3.72;;;17.20;99.90;;;;;;5052099;28;20079;-76
2023/10/12 02:50:14;;;;;;;8.60;3.63;;;17.20;99.90;;;;;;5045204;28;20480;-76
2023/10/12 02:52:44;;;;;;;8.60;3.72;;;17.20;99.90;;;;;;5044929;28;20512;-76
2023/10/12 02:58:06;;;;;;;7.78;4.43;;;17.20;99.90;;;;;;5041544;28;20579;-76
2023/10/12 03:05:48;;;;;;;7.45;3.70;;;17.20;99.90;;;;;;5043234;28;20045;-76
2023/10/12 03:08:30;;;;;;;8.32;3.55;;;17.10;99.90;;;;;;5046416;28;20090;-76
2023/10/12 03:13:35;;;;;;;7.63;3.37;;;17.10;99.90;;;;;;5042589;28;20461;-76
2023/10/12 03:18:42;;;;;;;7.65;3.53;;;17.10;99.90;;;;;;5043546;28;20054;-76
2023/10/12 03:21:12;;;;;;;5.97;3.33;;;17.00;99.90;;;;;;5043736;28;20723;-76
2023/10/12 03:23:40;;;;;;;6.88;3.33;;;17.00;99.90;;;;;;5044725;28;20107;-75
2023/10/12 03:26:24;;;;;;;6.50;3.17;;;17.00;99.90;;;;;;5037475;28;20054;-76
2023/10/12 03:29:43;;;;;;;8.30;3.75;;;17.00;99.90;;;;;;5044463;28;20045;-76
2023/10/12 03:34:25;;;;;;;12.00;4.57;;;16.90;99.90;;;;;;5050973;28;20110;-76
2023/10/12 03:37:01;;;;;;;6.03;3.00;;;16.90;99.90;;;;;;5047131;28;20079;-76
2023/10/12 03:39:29;;;;;;;7.65;3.45;;;16.90;99.90;;;;;;5045634;28;20049;-76
2023/10/12 03:42:09;;;;;;;9.32;4.05;;;16.90;99.90;;;;;;5038738;28;20100;-76
2023/10/12 03:44:48;;;;;;;6.70;3.05;;;16.90;99.90;;;;;;5051876;28;20148;-76
2023/10/12 03:52:27;;;;;;;7.43;3.20;;;16.90;99.90;;;;;;5045106;28;20054;-76
2023/10/12 04:05:21;;;;;;;;;;;16.90;99.90;;;;;;5041480;28;20052;-76
2023/10/12 04:13:55;;;;;;;8.93;3.17;;;16.80;99.90;;;;;;5052596;28;20466;-76
2023/10/12 04:18:42;;;;;;;9.07;3.67;;;16.80;99.90;;;;;;5045892;28;20076;-76
2023/10/12 04:21:10;;;;;;;11.18;3.00;;;16.70;99.90;;;;;;5044322;28;20099;-76
2023/10/12 04:23:49;;;;;;;5.40;3.40;;;16.70;99.90;;;;;;5045667;28;20052;-76
2023/10/12 04:28:52;;;;;;;6.53;3.30;;;16.70;99.90;;;;;;5048053;28;20076;-76
2023/10/12 04:36:44;;;;;;;11.65;4.15;;;16.70;99.90;;;;;;5041131;28;20484;-76
2023/10/12 04:39:24;;;;;;;10.15;4.05;;;16.70;99.90;;;;;;5025315;28;20049;-76
2023/10/12 04:47:07;;;;;;;8.50;3.22;;;16.60;99.90;;;;;;5047268;28;20079;-76
2023/10/12 04:52:17;;;;;;;12.20;3.83;;;16.60;99.90;;;;;;5044983;28;20136;-76
2023/10/12 04:55:06;;;;;;;8.95;3.72;;;16.50;99.90;;;;;;5044620;28;20045;-76
2023/10/12 04:57:34;;;;;;;8.15;5.05;;;16.50;99.90;;;;;;5051784;28;20037;-76
2023/10/12 05:00:34;;;;;;;12.50;6.00;;;16.50;99.90;;;;;;5045769;28;20048;-76
2023/10/12 05:02:56;;;;;;;6.20;3.90;;;16.50;99.90;;;;;;5046150;28;20088;-75
2023/10/12 05:07:57;;;;;;;7.85;3.78;;;16.40;99.90;;;;;;5045783;28;20063;-76
2023/10/12 05:10:41;;;;;;;9.80;3.20;;;16.40;99.90;;;;;;5049124;28;20059;-76
2023/10/12 05:13:10;;;;;;;6.55;3.63;;;16.40;99.90;;;;;;5048406;28;20053;-76
2023/10/12 05:16:04;;;;;;;7.30;3.22;;;16.30;99.90;;;;;;5045404;28;20091;-76
2023/10/12 05:18:32;;;;;;;6.88;3.33;;;16.30;99.90;;;;;;5041529;28;20049;-76
2023/10/12 05:21:00;;;;;;;5.38;3.28;;;16.30;99.90;;;;;;5041727;28;20068;-76
2023/10/12 05:23:29;;;;;;;7.35;3.22;;;16.30;99.90;;;;;;5050445;28;20564;-76
2023/10/12 05:28:27;;;;;;;5.47;3.10;;;16.30;99.90;;;;;;5045110;28;20080;-76
2023/10/12 05:30:59;;;;;;;6.97;3.00;;;16.30;99.90;;;;;;5045253;28;20045;-76
2023/10/12 05:36:10;;;;;;;6.13;2.88;;;16.30;99.90;;;;;;5048233;28;20049;-78
2023/10/12 05:39:08;;;;;;;7.22;3.35;;;16.30;99.90;;;;;;5050744;28;20051;-74
2023/10/12 05:41:34;;;;;;;7.47;3.40;;;16.30;99.90;;;;;;5049890;28;20282;-76
2023/10/12 05:44:03;;;;;;;10.30;3.97;;;16.30;99.90;;;;;;5042912;28;20048;-76
2023/10/12 05:46:33;;;;;;;7.07;3.45;;;16.30;99.90;;;;;;5046868;28;20070;-76
2023/10/12 05:49:02;;;;;;;9.32;3.72;;;16.30;99.90;;;;;;5038591;28;20045;-76
2023/10/12 05:51:29;;;;;;;7.63;3.63;;;16.20;99.90;;;;;;5040815;28;20091;-76
2023/10/12 05:54:02;;;;;;;11.23;3.55;;;16.30;99.90;;;;;;5048092;28;20045;-76
2023/10/12 05:56:39;;;;;;;7.68;3.60;;;16.30;99.90;;;;;;5047865;28;20040;-76
2023/10/12 05:59:09;;;;;;;12.25;3.40;;;16.30;99.90;;;;;;5041890;28;20484;-76
2023/10/12 06:01:37;;;;;;;12.93;4.25;;;16.30;99.90;;;;;;5044560;28;20463;-76
2023/10/12 06:04:07;;;;;;;10.63;4.32;;;16.30;99.90;;;;;;5039416;28;20051;-75
2023/10/12 06:06:40;;;;;;;10.98;4.13;;;16.30;99.90;;;;;;5045252;28;20079;-76
2023/10/12 06:09:12;;;;;;;9.80;3.20;;;16.30;99.90;;;;;;5047904;28;20436;-76
2023/10/12 06:11:42;;;;;;;10.50;3.80;;;16.30;99.90;;;;;;5047662;28;20041;-76
2023/10/12 06:14:09;;;;;;;6.50;3.42;;;16.30;99.90;;;;;;5043243;28;20081;-76
2023/10/12 06:16:45;;;;;;;5.28;2.97;;;16.30;99.90;;;;;;5043600;28;20041;-75
2023/10/12 06:19:28;;;;;;;16.10;3.90;;;16.30;99.90;;;;;;5031516;28;20045;-76
2023/10/12 06:21:58;;;;;;;7.50;3.50;;;16.30;99.90;;;;;;5047396;28;20099;-76
2023/10/12 06:24:35;;;;;;;10.57;3.67;;;16.30;99.90;;;;;;5047220;28;20045;-76
2023/10/12 06:29:54;;;;;;;10.70;4.55;;;16.40;99.90;;;;;;5038054;28;20488;-76
2023/10/12 06:32:31;;;;;;;8.30;3.90;;;16.40;99.90;;;;;;5044061;28;20524;-76
2023/10/12 06:35:13;;;;;;;8.00;3.15;;;16.40;99.90;;;;;;5037472;28;20073;-76
2023/10/12 06:45:51;;;;;;;9.57;3.42;;;16.70;99.90;;;;;;5043291;28;20064;-76
2023/10/12 06:48:43;;;;;;;5.95;3.10;;;16.80;99.90;;;;;;5039303;28;20045;-76
2023/10/12 06:51:16;;;;;;;7.55;3.63;;;16.80;99.90;;;;;;5047476;28;20053;-76
2023/10/12 06:53:51;;;;;;;7.38;3.83;;;16.90;99.90;;;;;;5044442;28;20123;-76
2023/10/12 07:04:17;;;;;;;9.13;3.50;;;17.10;99.90;;;;;;5046190;28;20147;-76
2023/10/12 07:07:07;;;;;;;11.10;3.65;;;17.20;99.90;;;;;;5050216;28;20064;-75
2023/10/12 07:09:48;;;;;;;11.80;5.03;;;17.20;99.90;;;;;;5049821;28;20093;-76
2023/10/12 07:12:19;;;;;;;6.78;3.38;;;17.30;99.90;;;;;;5046810;28;20061;-76
2023/10/12 07:14:47;;;;;;;8.98;3.88;;;17.30;99.90;;;;;;5023965;28;20049;-76
2023/10/12 07:17:15;;;;;;;10.98;3.40;;;17.30;99.90;;;;;;5046836;28;20045;-76
2023/10/12 07:19:46;;;;;;;12.02;3.72;;;17.40;99.90;;;;;;5052316;28;20084;-76
2023/10/12 07:22:18;;;;;;;9.50;3.25;;;17.40;99.90;;;;;;5048965;28;20048;-76
2023/10/12 07:24:46;;;;;;;10.13;3.70;;;17.40;99.90;;;;;;5048043;28;20419;-76
2023/10/12 07:27:18;;;;;;;9.23;3.58;;;17.50;99.90;;;;;;5045294;28;20049;-76
2023/10/12 07:29:47;;;;;;;8.25;2.97;;;17.50;99.90;;;;;;5041713;28;20059;-76
2023/10/12 07:34:57;;;;;;;6.80;3.20;;;17.60;99.90;;;;;;5050096;28;20040;-76
2023/10/12 07:37:27;;;;;;;5.93;3.80;;;17.70;99.90;;;;;;5049079;28;20111;-77
2023/10/12 07:39:54;;;;;;;7.15;3.05;;;17.80;99.90;;;;;;5034096;28;20087;-76
2023/10/12 07:42:27;;;;;;;10.00;3.65;;;17.80;99.90;;;;;;5044013;28;20049;-76
2023/10/12 07:44:54;;;;;;;7.72;3.63;;;17.90;99.90;;;;;;5041988;28;20050;-76
2023/10/12 07:47:40;;;;;;;10.65;3.70;;;18.00;99.90;;;;;;5048552;28;20049;-76
2023/10/12 07:50:25;;;;;;;11.25;3.70;;;18.00;99.90;;;;;;5048214;28;20567;-76
2023/10/12 07:55:41;;;;;;;9.65;3.33;;;18.20;99.90;;;;;;5047584;28;20070;-76
2023/10/12 07:58:12;;;;;;;8.40;3.33;;;18.30;99.90;;;;;;5039181;28;20133;-76
2023/10/12 08:00:41;;;;;;;10.82;4.00;;;18.30;99.90;;;;;;5047253;28;20045;-76
2023/10/12 08:03:18;;;;;;;9.48;3.35;;;18.40;99.90;;;;;;5050032;28;20114;-76
2023/10/12 08:05:56;;;;;;;7.80;3.30;;;18.40;99.90;;;;;;5048252;28;20135;-76
2023/10/12 08:08:33;;;;;;;5.80;3.40;;;18.40;99.90;;;;;;5045925;28;20056;-76
2023/10/12 08:11:09;;;;;;;6.15;3.40;;;18.50;99.90;;;;;;5045195;28;20445;-76
2023/10/12 08:13:39;;;;;;;10.00;4.03;;;18.50;99.90;;;;;;5038681;28;20090;-76
2023/10/12 08:16:14;;;;;;;7.65;3.75;;;18.50;99.90;;;;;;5034890;28;20042;-76
2023/10/12 08:18:53;;;;;;;9.23;3.63;;;18.60;99.90;;;;;;5033873;28;20044;-76
2023/10/12 08:21:24;;;;;;;10.90;4.18;;;18.70;99.90;;;;;;5048979;28;20119;-76
2023/10/12 08:24:10;;;;;;;6.82;3.65;;;18.80;99.90;;;;;;5043537;28;20051;-76
2023/10/12 08:29:17;;;;;;;10.98;4.05;;;18.90;99.90;;;;;;5042890;28;20049;-76
2023/10/12 08:31:44;;;;;;;6.18;3.90;;;19.00;99.90;;;;;;5032686;28;20044;-77
2023/10/12 08:39:49;;;;;;;10.75;3.88;;;19.30;99.90;;;;;;5045830;28;20074;-76
2023/10/12 08:45:15;;;;;;;11.55;4.75;;;19.50;99.90;;;;;;5029291;28;20057;-76
2023/10/12 08:47:49;;;;;;;6.13;3.58;;;19.60;99.90;;;;;;5046461;28;20094;-76
2023/10/12 08:52:50;;;;;;;11.57;4.15;;;19.70;99.90;;;;;;5040341;28;20680;-76
2023/10/12 08:55:19;;;;;;;8.20;4.38;;;19.80;99.90;;;;;;5045236;28;20077;-76
2023/10/12 08:58:14;;;;;;;9.73;4.10;;;19.90;99.90;;;;;;5041107;28;20044;-76
2023/10/12 09:01:07;;;;;;;11.05;4.07;;;20.00;99.90;;;;;;5044737;28;20040;-76
2023/10/12 09:03:38;;;;;;;7.40;3.42;;;20.20;99.90;;;;;;5049394;28;20078;-76
2023/10/12 09:08:51;;;;;;;7.10;4.03;;;20.40;99.90;;;;;;5040489;28;20076;-77
2023/10/12 09:11:19;;;;;;;8.15;3.83;;;20.40;99.90;;;;;;5042082;28;20164;-76
2023/10/12 09:13:46;;;;;;;8.00;3.42;;;20.40;99.90;;;;;;5046611;28;20045;-76
2023/10/12 09:16:15;;;;;;;7.22;3.63;;;20.50;99.90;;;;;;5045289;28;20504;-76
2023/10/12 09:18:44;;;;;;;6.07;3.50;;;20.50;99.90;;;;;;5048878;28;20076;-76
2023/10/12 09:24:05;;;;;;;8.05;3.72;;;20.60;99.90;;;;;;5043781;28;20095;-76
2023/10/12 09:26:38;;;;;;;10.80;3.83;;;20.70;99.90;;;;;;5041168;28;20050;-76
2023/10/12 09:36:44;;;;;;;9.30;3.88;;;20.80;99.90;;;;;;5039965;28;20070;-76
2023/10/12 09:39:17;;;;;;;13.23;3.92;;;20.80;99.90;;;;;;5044985;28;20041;-76
2023/10/12 09:41:54;;;;;;;7.90;3.50;;;20.80;99.90;;;;;;5050203;28;20132;-77
2023/10/12 09:44:27;;;;;;;8.30;3.60;;;20.90;99.90;;;;;;5046053;28;20084;-76
2023/10/12 09:46:59;;;;;;;8.70;3.60;;;20.90;99.90;;;;;;5042686;28;20509;-76
2023/10/12 09:49:29;;;;;;;8.68;3.50;;;21.00;99.90;;;;;;5045985;28;20402;-76
2023/10/12 09:52:04;;;;;;;6.55;3.58;;;21.10;99.90;;;;;;5036222;28;20132;-77
2023/10/12 09:54:48;;;;;;;7.68;4.00;;;21.20;99.90;;;;;;5049037;28;20053;-77
2023/10/12 09:57:19;;;;;;;11.82;3.40;;;21.20;99.90;;;;;;5050153;28;20044;-77
2023/10/12 09:59:51;;;;;;;6.03;3.40;;;21.30;99.90;;;;;;5043523;28;20044;-77
2023/10/12 10:02:28;;;;;;;6.72;3.30;;;21.40;99.90;;;;;;5043970;28;20051;-77
2023/10/12 10:05:01;;;;;;;10.15;3.28;;;21.50;99.90;;;;;;5042875;28;20133;-77
2023/10/12 10:07:35;;;;;;;10.02;3.13;;;21.50;99.90;;;;;;5037129;28;20049;-77
2023/10/12 10:10:05;;;;;;;10.55;3.72;;;21.60;99.90;;;;;;5049170;28;20435;-77
2023/10/12 10:12:36;;;;;;;7.55;3.30;;;21.70;99.90;;;;;;5050925;28;20057;-76
2023/10/12 10:15:10;;;;;;;9.27;3.80;;;21.80;99.90;;;;;;5042533;28;20428;-77
2023/10/12 10:17:47;;;;;;;8.50;3.65;;;21.90;99.90;;;;;;5044134;28;20447;-77
2023/10/12 10:23:01;;;;;;;7.47;3.97;;;22.00;99.90;;;;;;5037423;28;20114;-77
2023/10/12 10:25:34;;;;;;;8.50;3.47;;;22.10;99.90;;;;;;5050132;28;20082;-77
2023/10/12 10:28:13;;;;;;;15.35;4.07;;;22.10;99.90;;;;;;5048100;28;20068;-77
2023/10/12 10:30:42;;;;;;;6.43;3.00;;;22.30;99.90;;;;;;5044036;28;20541;-77
2023/10/12 10:33:13;;;;;;;8.45;3.75;;;22.30;99.90;;;;;;5046383;28;20432;-77
2023/10/12 10:36:10;;;;;;;18.35;4.60;;;22.40;99.90;;;;;;5039676;28;20041;-77
2023/10/12 10:38:53;;;;;;;10.30;3.30;;;22.40;99.90;;;;;;5034577;28;20072;-77
2023/10/12 10:44:15;;;;;;;10.38;3.55;;;22.50;99.90;;;;;;5045735;28;20045;-77
2023/10/12 10:46:47;;;;;;;9.20;3.70;;;22.60;99.90;;;;;;5043202;28;20044;-77
2023/10/12 10:49:15;;;;;;;11.15;3.60;;;22.60;99.90;;;;;;5043614;28;20556;-77
2023/10/12 10:54:37;;;;;;;11.15;4.13;;;22.80;99.90;;;;;;5050059;28;20102;-77
2023/10/12 10:59:52;;;;;;;5.57;3.40;;;23.00;99.90;;;;;;5045452;28;20056;-78
2023/10/12 11:02:20;;;;;;;12.40;3.40;;;23.10;99.90;;;;;;5048142;28;20057;-77
2023/10/12 11:04:51;;;;;;;7.20;3.63;;;23.10;99.90;;;;;;5044374;28;20073;-76
2023/10/12 11:07:17;;;;;;;;;;;23.20;99.90;;;;;;5038004;28;20052;-78
2023/10/12 11:12:30;;;;;;;10.50;3.90;;;23.20;99.90;;;;;;5050853;28;20042;-78
2023/10/12 11:15:00;;;;;;;8.15;3.67;;;23.20;99.90;;;;;;5044714;28;20052;-77
2023/10/12 11:17:35;;;;;;;7.22;3.63;;;23.20;99.90;;;;;;5048590;28;20056;-78
2023/10/12 11:20:07;;;;;;;8.85;3.90;;;23.30;99.90;;;;;;5044772;28;20057;-78
2023/10/12 11:22:37;;;;;;;7.15;3.53;;;23.20;99.90;;;;;;5054038;28;20054;-77
2023/10/12 11:25:15;;;;;;;8.02;4.10;;;23.30;99.90;;;;;;5050776;28;20055;-77
2023/10/12 11:27:42;;;;;;;11.32;3.80;;;23.30;99.90;;;;;;5052319;28;20049;-78
2023/10/12 11:30:18;;;;;;;8.02;3.65;;;23.40;99.90;;;;;;5042109;28;20187;-77
2023/10/12 11:32:53;;;;;;;8.43;3.08;;;23.50;99.90;;;;;;5048177;28;20057;-78
2023/10/12 11:35:40;;;;;;;10.65;3.50;;;23.50;99.90;;;;;;5049211;28;20053;-78
2023/10/12 11:38:18;;;;;;;6.15;3.25;;;23.60;99.90;;;;;;5052775;28;20056;-77
2023/10/12 11:40:52;;;;;;;7.75;3.60;;;23.60;99.90;;;;;;5048813;28;20049;-77
2023/10/12 11:43:29;;;;;;;9.02;3.60;;;23.60;99.90;;;;;;5047965;28;20053;-77
2023/10/12 11:46:03;;;;;;;9.50;3.75;;;23.60;99.90;;;;;;5040419;28;20614;-78
2023/10/12 11:48:31;;;;;;;6.85;3.25;;;23.60;99.90;;;;;;5032688;28;20084;-77
2023/10/12 11:51:10;;;;;;;8.60;3.30;;;23.60;99.90;;;;;;5060974;28;20051;-77
2023/10/12 11:53:38;;;;;;;7.07;3.33;;;23.60;99.90;;;;;;5054935;28;20076;-78
2023/10/12 11:56:14;;;;;;;9.23;3.10;;;23.60;99.90;;;;;;5055544;28;20048;-78
2023/10/12 11:58:41;;;;;;;17.27;4.95;;;23.70;99.90;;;;;;5052572;28;20041;-77
2023/10/12 12:01:10;;;;;;;8.60;3.20;;;23.70;99.90;;;;;;5047037;28;20560;-78
2023/10/12 12:03:39;;;;;;;10.20;3.17;;;23.90;99.90;;;;;;5057468;28;20063;-77
2023/10/12 12:06:12;;;;;;;;;;;23.90;99.90;;;;;;5055840;28;20075;-77
2023/10/12 12:08:40;;;;;;;9.18;3.38;;;24.00;99.90;;;;;;5053481;28;19955;-77
2023/10/12 12:11:09;;;;;;;9.35;3.33;;;24.10;99.90;;;;;;5050453;28;20049;-77
2023/10/12 12:13:42;;;;;;;5.47;3.08;;;24.10;99.90;;;;;;5050193;28;20053;-77
2023/10/12 12:16:10;;;;;;;13.40;2.90;;;24.10;99.90;;;;;;5046269;28;20496;-77
2023/10/12 12:18:36;;;;;;;12.48;4.25;;;24.20;99.90;;;;;;5038294;28;20514;-78
2023/10/12 12:21:14;;;;;;;8.75;3.25;;;24.20;99.90;;;;;;5051461;28;20052;-77
2023/10/12 12:23:41;;;;;;;8.98;2.92;;;24.20;99.90;;;;;;5052740;28;20049;-78
2023/10/12 12:26:09;;;;;;;7.35;3.28;;;24.20;99.90;;;;;;5049444;28;20080;-78
2023/10/12 12:28:45;;;;;;;9.60;3.60;;;24.30;99.90;;;;;;5050057;28;20428;-78
2023/10/12 12:31:16;;;;;;;12.57;4.00;;;24.30;99.90;;;;;;5045928;28;20115;-78
2023/10/12 12:33:44;;;;;;;11.95;3.13;;;24.30;99.90;;;;;;5058068;28;20132;-78
2023/10/12 12:36:21;;;;;;;10.32;3.35;;;24.30;99.90;;;;;;5054790;28;20086;-78
2023/10/12 12:38:52;;;;;;;10.90;3.05;;;24.30;99.90;;;;;;5051100;28;20049;-78
2023/10/12 12:41:19;;;;;;;15.63;3.58;;;24.30;99.90;;;;;;5050773;28;20073;-78
2023/10/12 12:43:47;;;;;;;8.80;3.60;;;24.40;99.90;;;;;;5049494;28;20614;-78
2023/10/12 12:46:14;;;;;;;8.85;3.00;;;24.40;99.90;;;;;;5030039;28;20079;-78
2023/10/12 12:48:47;;;;;;;4.57;2.72;;;24.50;99.90;;;;;;5056452;28;20455;-77
2023/10/12 12:51:15;;;;;;;10.07;3.67;;;24.50;99.90;;;;;;5054159;28;20164;-78
2023/10/12 12:53:46;;;;;;;8.13;3.30;;;24.50;99.90;;;;;;5050893;28;20455;-78
2023/10/12 12:56:18;;;;;;;11.70;3.17;;;24.50;99.90;;;;;;5030231;28;20071;-78
2023/10/12 12:58:46;;;;;;;11.73;2.92;;;24.60;99.90;;;;;;5047917;28;20413;-78
2023/10/12 13:01:23;;;;;;;11.95;3.15;;;24.60;99.90;;;;;;5049214;28;20052;-78
2023/10/12 13:03:57;;;;;;;9.15;3.67;;;24.60;99.90;;;;;;5055067;28;20052;-77
2023/10/12 13:06:24;;;;;;;10.18;3.38;;;24.60;99.90;;;;;;5052720;28;20511;-77
2023/10/12 13:08:51;;;;;;;8.43;2.72;;;24.60;99.90;;;;;;5048365;28;20463;-78
2023/10/12 13:11:22;;;;;;;10.25;3.13;;;24.60;99.90;;;;;;5051496;28;20103;-77
2023/10/12 13:13:49;;;;;;;7.55;3.22;;;24.60;99.90;;;;;;5045188;28;20041;-78
2023/10/12 13:16:16;;;;;;;4.18;2.83;;;24.60;99.90;;;;;;5053070;28;20045;-78
2023/10/12 13:18:46;;;;;;;9.48;3.35;;;24.60;99.90;;;;;;5052980;28;20071;-78
2023/10/12 13:21:16;;;;;;;;;;;24.70;99.90;;;;;;5054414;28;20073;-78
2023/10/12 13:23:44;;;;;;;6.88;3.08;;;24.70;99.90;;;;;;5049354;28;19968;-78
2023/10/12 13:26:14;;;;;;;8.93;3.40;;;24.70;99.90;;;;;;5050129;28;20108;-78
2023/10/12 13:28:41;;;;;;;8.27;2.75;;;24.80;99.90;;;;;;5047253;28;20049;-78
2023/10/12 13:31:12;;;;;;;9.48;3.03;;;24.80;99.90;;;;;;5058656;28;20189;-78
2023/10/12 13:33:42;;;;;;;6.38;3.10;;;24.80;99.90;;;;;;5051878;28;20048;-78
2023/10/12 13:36:09;;;;;;;;;;;24.90;99.90;;;;;;5054039;28;20129;-78
2023/10/12 13:38:37;;;;;;;7.82;2.78;;;24.90;99.90;;;;;;5045626;28;19954;-77
2023/10/12 13:41:05;;;;;;;6.28;2.50;;;25.00;99.90;;;;;;5048568;28;20044;-78
2023/10/12 13:43:34;;;;;;;8.05;3.05;;;25.00;99.90;;;;;;5052466;28;20539;-77
2023/10/12 13:46:07;;;;;;;13.40;3.00;;;25.10;99.90;;;;;;5054447;28;20478;-77
2023/10/12 13:48:37;;;;;;;5.28;2.83;;;25.20;99.90;;;;;;5049890;28;20044;-78
2023/10/12 13:51:08;;;;;;;7.28;2.85;;;25.20;99.90;;;;;;5049155;28;20497;-78
2023/10/12 13:53:36;;;;;;;11.82;2.90;;;25.20;99.90;;;;;;5039527;28;20063;-77
2023/10/12 13:56:07;;;;;;;6.90;3.13;;;25.20;99.90;;;;;;5031412;28;20114;-77
2023/10/12 13:58:34;;;;;;;;;;;25.20;99.90;;;;;;5054467;28;20041;-78
2023/10/12 14:01:03;;;;;;;5.95;2.78;;;25.20;99.90;;;;;;5057610;28;20377;-78
2023/10/12 14:03:38;;;;;;;10.07;3.70;;;25.10;99.90;;;;;;5048865;28;20099;-77
2023/10/12 14:06:06;;;;;;;6.60;2.75;;;25.10;99.90;;;;;;5049943;28;20052;-77
2023/10/12 14:08:40;;;;;;;11.05;3.03;;;25.10;99.90;;;;;;5043962;28;20049;-78
2023/10/12 14:11:12;;;;;;;7.50;3.42;;;25.10;99.90;;;;;;5046741;28;20053;-78
2023/10/12 14:13:39;;;;;;;11.65;2.67;;;25.00;99.90;;;;;;5053974;28;20087;-78
2023/10/12 14:16:10;;;;;;;7.55;2.53;;;25.00;99.90;;;;;;5055115;28;20405;-78
2023/10/12 14:18:39;;;;;;;8.25;3.03;;;25.10;99.90;;;;;;5046318;28;20075;-77
2023/10/12 14:21:10;;;;;;;11.63;3.65;;;25.00;99.90;;;;;;5049082;28;20052;-78
2023/10/12 14:23:45;;;;;;;11.18;2.75;;;25.00;99.90;;;;;;5042062;28;20493;-78
2023/10/12 14:26:22;;;;;;;8.95;2.83;;;25.10;99.90;;;;;;5052167;28;20051;-78
2023/10/12 14:28:50;;;;;;;7.32;3.25;;;25.10;99.90;;;;;;5053467;28;20059;-78
2023/10/12 14:31:20;;;;;;;7.60;2.58;;;25.00;99.90;;;;;;5049554;28;20105;-78
2023/10/12 14:33:51;;;;;;;14.13;2.80;;;25.00;99.90;;;;;;5049117;28;20073;-78
2023/10/12 14:36:19;;;;;;;5.00;2.53;;;25.00;99.90;;;;;;5047798;28;20045;-78
2023/10/12 14:38:47;;;;;;;7.68;2.45;;;25.00;99.90;;;;;;5041576;28;20045;-78
2023/10/12 14:41:16;;;;;;;8.48;2.40;;;25.00;99.90;;;;;;5055806;28;20051;-78
2023/10/12 14:43:47;;;;;;;;;;;25.00;99.90;;;;;;5053377;28;20068;-78
2023/10/12 14:46:18;;;;;;;9.05;3.03;;;25.00;99.90;;;;;;5050665;28;19939;-78
2023/10/12 14:48:49;;;;;;;10.80;2.58;;;25.00;99.90;;;;;;5045992;28;20053;-77
2023/10/12 14:51:17;;;;;;;6.00;2.75;;;25.00;99.90;;;;;;5050769;28;20064;-78
2023/10/12 14:53:44;;;;;;;9.27;2.95;;;24.90;99.90;;;;;;5041014;28;20050;-78
2023/10/12 14:56:14;;;;;;;7.55;2.88;;;24.90;99.90;;;;;;5055922;28;20040;-78
2023/10/12 14:58:41;;;;;;;8.40;2.93;;;24.90;99.90;;;;;;5050713;28;20056;-76
2023/10/12 15:01:13;;;;;;;6.78;2.65;;;24.90;99.90;;;;;;5047309;28;20286;-77
2023/10/12 15:03:41;;;;;;;8.85;2.47;;;24.90;99.90;;;;;;5044083;28;20424;-77
2023/10/12 15:06:12;;;;;;;8.00;2.50;;;24.80;99.90;;;;;;5048288;28;20041;-78
2023/10/12 15:08:41;;;;;;;10.15;2.58;;;24.80;99.90;;;;;;5043725;28;20049;-77
2023/10/12 15:11:09;;;;;;;9.10;2.33;;;24.80;99.90;;;;;;5049039;28;20040;-78
2023/10/12 15:13:40;;;;;;;8.82;2.53;;;24.70;99.90;;;;;;5049373;28;20056;-78
2023/10/12 15:16:10;;;;;;;5.80;2.50;;;24.70;99.90;;;;;;5051089;28;20036;-78
2023/10/12 15:18:40;;;;;;;4.82;2.30;;;24.60;99.90;;;;;;5042814;28;20076;-78
2023/10/12 15:21:11;;;;;;;11.32;2.65;;;24.60;99.90;;;;;;5050044;28;20060;-77
2023/10/12 15:23:57;;;;;;;9.27;2.30;;;24.60;99.90;;;;;;5049876;28;20123;-78
2023/10/12 15:26:24;;;;;;;6.15;2.30;;;24.50;99.90;;;;;;5054980;28;20068;-78
2023/10/12 15:28:52;;;;;;;12.15;2.50;;;24.50;99.90;;;;;;5054878;28;20049;-78
2023/10/12 15:31:29;;;;;;;6.13;2.05;;;24.40;99.90;;;;;;5051042;28;20041;-78
2023/10/12 15:33:56;;;;;;;5.47;2.15;;;24.40;99.90;;;;;;5048544;28;20052;-78